Time;durP1;ratioP1;P1;durP2;ratioP2;P2;SDS_P1;SDS_P2;PMS_P1;PMS_P2;Temp;Humidity;BMP_temperature;BMP_pressure;BME280_temperature;BME280_humidity;BME280_pressure;Samples;Min_cycle;Max_cycle;Signal;HPM_P1;HPM_P2
2022/11/14 00:02:32;;;;;;;27.30;20.00;;;;;;;3.21;100.00;96461.72;4992862;28;20442;-74
2022/11/14 00:05:18;;;;;;;33.17;22.17;;;;;;;3.31;100.00;96466.84;4990836;28;20924;-74
2022/11/14 00:08:03;;;;;;;27.93;20.27;;;;;;;3.28;100.00;96446.50;4976172;28;21401;-74
2022/11/14 00:10:50;;;;;;;34.80;24.87;;;;;;;3.52;100.00;96478.66;4986411;28;20456;-74
2022/11/14 00:13:35;;;;;;;32.70;22.77;;;;;;;3.43;100.00;96464.63;4974816;28;20468;-74
2022/11/14 00:16:20;;;;;;;35.03;24.30;;;;;;;3.29;100.00;96452.50;4993544;28;20440;-75
2022/11/14 00:19:05;;;;;;;35.43;23.30;;;;;;;3.45;100.00;96478.19;4993967;28;20443;-76
2022/11/14 00:21:52;;;;;;;34.17;22.13;;;;;;;3.34;100.00;96457.66;4977034;28;20424;-75
2022/11/14 00:24:37;;;;;;;32.90;21.00;;;;;;;3.20;100.00;96434.78;4972702;28;20500;-75
2022/11/14 00:27:22;;;;;;;31.30;23.17;;;;;;;3.30;100.00;96444.38;4974912;28;20456;-74
2022/11/14 00:30:08;;;;;;;33.90;21.90;;;;;;;3.37;100.00;96446.69;4973802;28;20425;-75
2022/11/14 00:32:53;;;;;;;32.30;22.00;;;;;;;3.37;100.00;96450.06;4972779;28;21012;-75
2022/11/14 00:35:38;;;;;;;28.73;21.43;;;;;;;3.37;100.00;96447.47;4972737;28;20423;-75
2022/11/14 00:38:23;;;;;;;28.40;20.90;;;;;;;3.00;100.00;96400.25;4986937;28;20588;-76
2022/11/14 00:41:09;;;;;;;32.40;23.10;;;;;;;3.44;100.00;96466.19;4974529;28;21294;-74
2022/11/14 00:43:54;;;;;;;33.13;24.70;;;;;;;3.41;100.00;96468.56;4992853;28;20499;-74
2022/11/14 00:46:39;;;;;;;30.63;22.70;;;;;;;3.24;100.00;96435.03;4973586;28;20912;-74
2022/11/14 00:49:24;;;;;;;29.23;22.00;;;;;;;3.38;100.00;96451.63;4986455;28;20419;-74
2022/11/14 00:52:09;;;;;;;29.10;22.53;;;;;;;3.35;100.00;96446.19;4973511;28;20428;-74
2022/11/14 00:54:55;;;;;;;34.90;22.90;;;;;;;3.28;100.00;96446.50;4973338;28;20559;-74
2022/11/14 00:57:40;;;;;;;32.03;21.00;;;;;;;3.10;100.00;96408.78;4971907;28;20447;-74
2022/11/14 01:00:26;;;;;;;31.57;21.70;;;;;;;3.19;100.00;96419.41;4973148;28;20428;-75
2022/11/14 01:03:11;;;;;;;30.23;22.30;;;;;;;3.19;100.00;96416.78;4972307;28;20758;-75
2022/11/14 01:05:56;;;;;;;29.97;22.77;;;;;;;3.25;100.00;96416.47;4972874;28;20440;-75
2022/11/14 01:08:42;;;;;;;26.57;21.33;;;;;;;3.28;100.00;96416.97;4985287;28;20922;-75
2022/11/14 01:11:28;;;;;;;37.60;24.77;;;;;;;3.19;100.00;96419.41;4972852;28;20529;-74
2022/11/14 01:14:13;;;;;;;33.83;22.70;;;;;;;3.26;100.00;96433.69;4977846;28;20467;-75
2022/11/14 01:16:58;;;;;;;30.53;23.03;;;;;;;3.29;100.00;96434.19;4992355;28;20474;-75
2022/11/14 01:19:44;;;;;;;27.90;21.67;;;;;;;3.20;100.00;96408.66;4992191;28;20419;-75
2022/11/14 01:22:29;;;;;;;26.40;21.93;;;;;;;3.19;100.00;96414.19;4991021;28;20654;-75
2022/11/14 01:25:14;;;;;;;34.83;21.80;;;;;;;3.17;100.00;96414.44;4987087;28;20461;-75
2022/11/14 01:28:00;;;;;;;30.50;23.77;;;;;;;3.31;100.00;96422.41;4972635;28;20444;-75
2022/11/14 01:30:45;;;;;;;32.07;21.77;;;;;;;3.12;100.00;96393.63;4971610;28;20561;-75
2022/11/14 01:33:30;;;;;;;31.50;22.37;;;;;;;3.31;100.00;96424.25;4990713;28;20462;-75
2022/11/14 01:36:16;;;;;;;35.13;23.87;;;;;;;3.13;100.00;96397.78;4991815;28;20531;-75
2022/11/14 01:39:01;;;;;;;37.47;23.30;;;;;;;3.11;100.00;96388.66;4991745;28;20423;-75
2022/11/14 01:41:46;;;;;;;34.23;24.00;;;;;;;3.13;100.00;96394.41;4990901;28;20420;-75
2022/11/14 01:44:40;;;;;;;29.10;22.10;;;;;;;3.27;100.00;96408.34;4976640;28;20419;-75
2022/11/14 01:47:29;;;;;;;29.23;21.50;;;;;;;3.31;100.00;96403.34;4972253;28;20460;-75
2022/11/14 01:50:14;;;;;;;24.77;19.67;;;;;;;3.13;100.00;96389.94;4982343;28;20427;-75
2022/11/14 01:53:00;;;;;;;28.90;22.17;;;;;;;3.24;100.00;96395.84;4991875;28;20420;-75
2022/11/14 01:55:45;;;;;;;31.90;23.10;;;;;;;3.28;100.00;96391.63;4990277;28;20431;-75
2022/11/14 01:58:33;;;;;;;31.10;22.97;;;;;;;3.13;100.00;96371.66;4972465;28;20483;-75
2022/11/14 02:01:19;;;;;;;31.83;22.70;;;;;;;3.14;100.00;96378.44;4985089;28;20424;-75
2022/11/14 02:04:05;;;;;;;31.40;21.73;;;;;;;3.25;100.00;96392.19;4971361;28;20419;-75
2022/11/14 02:07:02;;;;;;;30.10;22.00;;;;;;;3.18;100.00;96379.44;4971154;28;20548;-75
2022/11/14 02:09:48;;;;;;;32.10;22.03;;;;;;;3.23;100.00;96391.69;4975218;28;20778;-75
2022/11/14 02:12:33;;;;;;;30.43;23.53;;;;;;;3.22;100.00;96390.91;4972299;28;20439;-75
2022/11/14 02:15:19;;;;;;;31.43;22.10;;;;;;;3.11;100.00;96368.56;4971963;28;20542;-75
2022/11/14 02:18:04;;;;;;;30.13;21.07;;;;;;;3.22;100.00;96387.53;4974097;28;20614;-75
2022/11/14 02:20:49;;;;;;;32.27;22.77;;;;;;;3.04;100.00;96364.69;4976131;28;20801;-75
2022/11/14 02:23:34;;;;;;;31.67;22.83;;;;;;;3.19;100.00;96380.22;4979335;28;20491;-75
2022/11/14 02:26:21;;;;;;;30.70;22.33;;;;;;;3.19;100.00;96375.00;4994142;28;20423;-75
2022/11/14 02:29:09;;;;;;;31.90;21.90;;;;;;;3.13;100.00;96381.34;4985889;28;20972;-75
2022/11/14 02:31:54;;;;;;;33.93;21.30;;;;;;;2.92;100.00;96337.13;4974906;28;21245;-75
2022/11/14 02:34:39;;;;;;;33.17;22.57;;;;;;;2.86;100.00;96333.03;4974683;28;20832;-75
2022/11/14 02:37:24;;;;;;;33.70;24.27;;;;;;;3.09;100.00;96368.06;4976404;28;20527;-75
2022/11/14 02:40:10;;;;;;;31.43;22.07;;;;;;;2.96;100.00;96347.81;4975843;28;20432;-75
2022/11/14 02:42:55;;;;;;;30.50;22.60;;;;;;;3.04;100.00;96362.09;4974728;28;20468;-75
2022/11/14 02:45:41;;;;;;;32.17;24.33;;;;;;;2.99;100.00;96343.88;4986738;28;20418;-75
2022/11/14 02:48:26;;;;;;;30.43;22.00;;;;;;;3.04;100.00;96368.09;4994070;28;20446;-75
2022/11/14 02:51:12;;;;;;;31.83;21.20;;;;;;;3.09;100.00;96367.28;4994110;28;20508;-75
2022/11/14 02:53:57;;;;;;;34.17;21.23;;;;;;;3.05;100.00;96355.81;4981466;28;20468;-75
2022/11/14 02:56:42;;;;;;;31.80;23.00;;;;;;;2.91;100.00;96353.84;4964726;28;20420;-75
2022/11/14 02:59:27;;;;;;;28.17;21.40;;;;;;;2.92;100.00;96350.19;4974341;28;21046;-75
2022/11/14 03:02:13;;;;;;;32.40;22.23;;;;;;;3.02;100.00;96364.19;4975222;28;20532;-75
2022/11/14 03:04:58;;;;;;;27.90;20.13;;;;;;;2.75;100.00;96330.78;4975490;28;20943;-75
2022/11/14 03:07:43;;;;;;;31.10;20.37;;;;;;;2.80;100.00;96356.81;4974979;28;20447;-75
2022/11/14 03:10:29;;;;;;;28.50;21.83;;;;;;;2.88;100.00;96357.03;4976290;28;20906;-74
2022/11/14 03:13:14;;;;;;;27.20;19.30;;;;;;;2.75;100.00;96328.16;4988203;28;21029;-74
2022/11/14 03:16:07;;;;;;;29.80;21.07;;;;;;;2.78;100.00;96328.38;4970183;28;20486;-74
2022/11/14 03:18:52;;;;;;;28.47;22.23;;;;;;;2.76;100.00;96322.69;4993597;28;20454;-74
2022/11/14 03:21:38;;;;;;;24.23;20.20;;;;;;;2.94;100.00;96340.28;4994557;28;20928;-74
2022/11/14 03:24:24;;;;;;;29.80;22.00;;;;;;;2.80;100.00;96320.28;4994455;28;20424;-75
2022/11/14 03:27:09;;;;;;;31.37;21.60;;;;;;;2.93;100.00;96327.47;4989918;28;20448;-75
2022/11/14 03:29:55;;;;;;;31.37;20.47;;;;;;;2.72;100.00;96305.25;4974784;28;20447;-75
2022/11/14 03:32:40;;;;;;;26.37;18.83;;;;;;;2.82;100.00;96316.38;4973932;28;20416;-75
2022/11/14 03:35:25;;;;;;;29.53;21.30;;;;;;;2.66;100.00;96301.88;4992990;28;20949;-75
2022/11/14 03:38:11;;;;;;;30.33;21.63;;;;;;;2.65;100.00;96305.53;4993160;28;20510;-75
2022/11/14 03:40:59;;;;;;;29.73;20.43;;;;;;;2.65;100.00;96305.53;4994204;28;20432;-75
2022/11/14 03:43:45;;;;;;;25.80;20.03;;;;;;;2.56;100.00;96292.34;4993162;28;20428;-75
2022/11/14 03:46:30;;;;;;;28.80;21.00;;;;;;;2.57;100.00;96295.72;4994096;28;20507;-75
2022/11/14 03:49:15;;;;;;;28.00;20.53;;;;;;;2.73;100.00;96318.00;4994050;28;20784;-75
2022/11/14 03:52:01;;;;;;;29.67;20.80;;;;;;;2.79;100.00;96313.50;4993035;28;20482;-75
2022/11/14 03:54:46;;;;;;;27.47;19.90;;;;;;;2.58;100.00;96289.44;4992814;28;20459;-74
2022/11/14 03:57:31;;;;;;;28.07;19.83;;;;;;;2.60;100.00;96289.94;4992501;28;20914;-74
2022/11/14 04:00:17;;;;;;;28.87;20.10;;;;;;;2.84;100.00;96318.69;4993921;28;20555;-74
2022/11/14 04:03:02;;;;;;;27.43;19.83;;;;;;;2.60;100.00;96288.13;4993793;28;20492;-74
2022/11/14 04:05:48;;;;;;;23.67;18.37;;;;;;;2.64;100.00;96283.13;4985928;28;20423;-74
2022/11/14 04:08:33;;;;;;;32.67;19.83;;;;;;;2.75;100.00;96300.25;4973258;28;20444;-75
2022/11/14 04:11:18;;;;;;;32.07;19.53;;;;;;;2.67;100.00;96283.38;4974238;28;20464;-75
2022/11/14 04:14:04;;;;;;;24.37;19.30;;;;;;;2.72;100.00;96297.41;4977692;28;21018;-75
2022/11/14 04:16:49;;;;;;;23.80;17.80;;;;;;;2.67;100.00;96282.56;4973804;28;21047;-74
2022/11/14 04:19:34;;;;;;;25.20;19.03;;;;;;;2.70;100.00;96302.91;4983259;28;20422;-74
2022/11/14 04:22:19;;;;;;;30.87;19.50;;;;;;;2.57;100.00;96278.22;4993353;28;20931;-74
2022/11/14 04:25:06;;;;;;;27.23;19.30;;;;;;;2.83;100.00;96298.88;4993017;28;20431;-74
2022/11/14 04:27:51;;;;;;;25.37;19.60;;;;;;;2.68;100.00;96276.31;4993076;28;20534;-74
2022/11/14 04:30:36;;;;;;;28.53;20.50;;;;;;;2.73;100.00;96285.91;4991988;28;20560;-74
2022/11/14 04:33:21;;;;;;;26.27;18.03;;;;;;;2.64;100.00;96288.34;4992171;28;20423;-74
2022/11/14 04:36:07;;;;;;;27.70;18.50;;;;;;;2.65;100.00;96276.84;4992904;28;20990;-74
2022/11/14 04:38:52;;;;;;;25.77;19.53;;;;;;;2.75;100.00;96297.63;4993255;28;20431;-74
2022/11/14 04:41:37;;;;;;;26.00;20.13;;;;;;;2.84;100.00;96316.84;4974354;28;20428;-74
2022/11/14 04:44:22;;;;;;;25.33;17.80;;;;;;;2.62;100.00;96283.41;4973545;28;20932;-74
2022/11/14 04:47:07;;;;;;;27.27;19.00;;;;;;;2.55;100.00;96285.56;4973337;28;20441;-74
2022/11/14 04:49:53;;;;;;;25.73;19.80;;;;;;;2.62;100.00;96282.63;4973411;28;20416;-75
2022/11/14 04:52:38;;;;;;;24.70;18.80;;;;;;;2.62;100.00;96288.63;4973407;28;20452;-75
2022/11/14 04:55:23;;;;;;;30.30;20.10;;;;;;;2.74;100.00;96311.72;4973173;28;20529;-75
2022/11/14 04:58:08;;;;;;;25.40;18.77;;;;;;;2.74;100.00;96309.13;4960806;28;20583;-74
2022/11/14 05:00:56;;;;;;;24.00;17.50;;;;;;;2.72;100.00;96313.84;4989745;28;20440;-74
2022/11/14 05:03:41;;;;;;;28.10;17.73;;;;;;;2.52;100.00;96290.53;4991917;28;20419;-74
2022/11/14 05:06:27;;;;;;;22.83;19.03;;;;;;;2.52;100.00;96296.53;4978813;28;20420;-74
2022/11/14 05:09:12;;;;;;;24.20;17.53;;;;;;;2.47;100.00;96307.03;4973294;28;20432;-74
2022/11/14 05:11:57;;;;;;;23.10;17.17;;;;;;;2.47;100.00;96308.84;4972855;28;20431;-74
2022/11/14 05:14:42;;;;;;;26.83;17.73;;;;;;;2.33;100.00;96296.44;4971940;28;20543;-74
2022/11/14 05:17:28;;;;;;;22.50;17.90;;;;;;;2.36;100.00;96315.97;4973152;28;20445;-74
2022/11/14 05:20:13;;;;;;;22.17;18.40;;;;;;;2.31;100.00;96313.44;4972948;28;20933;-75
2022/11/14 05:22:58;;;;;;;22.00;17.30;;;;;;;2.14;100.00;96298.19;4971742;28;20798;-75
2022/11/14 05:25:44;;;;;;;22.53;17.53;;;;;;;2.25;100.00;96320.50;4971600;28;20888;-75
2022/11/14 05:28:29;;;;;;;25.47;18.10;;;;;;;2.25;100.00;96330.16;4971625;28;20520;-75
2022/11/14 05:31:16;;;;;;;25.43;18.20;;;;;;;2.22;100.00;96326.25;4971726;28;20423;-75
2022/11/14 05:34:02;;;;;;;23.27;16.53;;;;;;;2.03;100.00;96304.50;4971457;28;20937;-75
2022/11/14 05:36:47;;;;;;;26.83;19.23;;;;;;;2.16;100.00;96323.97;4989992;28;20503;-75
2022/11/14 05:39:32;;;;;;;24.13;17.23;;;;;;;2.03;100.00;96304.50;4992033;28;20428;-75
2022/11/14 05:42:18;;;;;;;23.10;17.40;;;;;;;1.99;100.00;96308.69;4991687;28;21051;-75
2022/11/14 05:45:03;;;;;;;24.83;18.60;;;;;;;1.82;100.00;96290.81;4990867;28;20423;-75
2022/11/14 05:47:52;;;;;;;22.40;17.07;;;;;;;1.90;100.00;96316.31;4990857;28;20466;-75
2022/11/14 05:50:37;;;;;;;22.77;17.63;;;;;;;1.75;100.00;96309.38;4990651;28;20422;-75
2022/11/14 05:53:23;;;;;;;24.97;15.70;;;;;;;1.96;100.00;96335.31;4990985;28;20482;-75
2022/11/14 05:56:11;;;;;;;21.80;17.60;;;;;;;1.76;100.00;96310.16;4987870;28;20526;-75
2022/11/14 05:58:56;;;;;;;24.30;18.37;;;;;;;1.81;100.00;96314.56;4972348;28;20472;-75
2022/11/14 06:01:42;;;;;;;22.77;16.90;;;;;;;1.75;100.00;96303.41;4981044;28;20427;-75
2022/11/14 06:04:27;;;;;;;23.07;17.80;;;;;;;1.70;100.00;96306.78;4990641;28;20423;-75
2022/11/14 06:07:12;;;;;;;23.20;18.00;;;;;;;1.92;100.00;96348.13;4971906;28;20995;-74
2022/11/14 06:10:04;;;;;;;25.47;17.43;;;;;;;1.73;100.00;96316.66;4972105;28;20523;-74
2022/11/14 06:12:49;;;;;;;22.57;17.70;;;;;;;1.94;100.00;96338.19;4972150;28;20925;-74
2022/11/14 06:15:34;;;;;;;24.43;18.47;;;;;;;1.79;100.00;96320.03;4989391;28;21014;-75
2022/11/14 06:18:20;;;;;;;22.20;17.90;;;;;;;1.78;100.00;96324.47;4990620;28;20795;-74
2022/11/14 06:21:06;;;;;;;23.87;18.17;;;;;;;1.77;100.00;96335.16;4991632;28;21327;-74
2022/11/14 06:23:52;;;;;;;25.70;17.53;;;;;;;1.79;100.00;96343.50;4986537;28;20431;-74
2022/11/14 06:26:37;;;;;;;29.50;18.87;;;;;;;1.64;100.00;96305.28;4971296;28;20436;-74
2022/11/14 06:29:22;;;;;;;25.70;18.97;;;;;;;1.79;100.00;96314.81;4971011;28;20472;-74
2022/11/14 06:32:08;;;;;;;26.50;19.40;;;;;;;1.92;100.00;96331.69;4971470;28;20936;-74
2022/11/14 06:34:53;;;;;;;24.67;17.60;;;;;;;1.77;100.00;96315.09;4969578;28;20998;-74
2022/11/14 06:37:38;;;;;;;22.30;16.50;;;;;;;1.95;100.00;96352.78;4971056;28;20557;-75
2022/11/14 06:40:23;;;;;;;23.90;18.37;;;;;;;1.81;100.00;96330.97;4972188;28;20504;-75
2022/11/14 06:43:08;;;;;;;25.47;17.77;;;;;;;1.98;100.00;96348.84;4971834;28;20999;-75
2022/11/14 06:45:54;;;;;;;24.60;18.20;;;;;;;1.71;100.00;96326.59;4972111;28;20471;-75
2022/11/14 06:48:40;;;;;;;23.77;16.60;;;;;;;1.73;100.00;96328.91;4972105;28;20531;-74
2022/11/14 06:51:25;;;;;;;21.17;16.73;;;;;;;1.87;100.00;96355.97;4970745;28;20537;-75
2022/11/14 06:54:11;;;;;;;22.67;17.80;;;;;;;1.88;100.00;96372.38;4983627;28;20435;-75
2022/11/14 06:56:56;;;;;;;25.93;17.83;;;;;;;1.89;100.00;96374.72;4971835;28;20436;-75
2022/11/14 06:59:41;;;;;;;23.30;18.00;;;;;;;1.91;100.00;96364.03;4972397;28;20496;-75
2022/11/14 07:02:27;;;;;;;19.10;15.83;;;;;;;1.59;100.00;96312.31;4972021;28;20396;-75
2022/11/14 07:05:12;;;;;;;24.10;18.93;;;;;;;1.97;100.00;96370.75;4975055;28;20468;-75
2022/11/14 07:07:57;;;;;;;25.33;17.87;;;;;;;1.82;100.00;96342.94;4976434;28;20520;-75
2022/11/14 07:10:42;;;;;;;21.33;17.83;;;;;;;1.97;100.00;96361.09;4987906;28;20444;-75
2022/11/14 07:13:30;;;;;;;25.33;18.50;;;;;;;2.02;100.00;96394.22;4975131;28;20428;-75
2022/11/14 07:16:15;;;;;;;26.27;18.27;;;;;;;2.12;100.00;96399.34;4994557;28;21250;-75
2022/11/14 07:19:06;;;;;;;24.57;18.90;;;;;;;2.08;100.00;96385.28;4994876;28;20434;-75
2022/11/14 07:21:51;;;;;;;24.90;18.53;;;;;;;2.18;100.00;96380.03;4993562;28;20902;-75
2022/11/14 07:24:37;;;;;;;22.30;17.10;;;;;;;2.00;100.00;96370.22;4994592;28;20923;-75
2022/11/14 07:27:22;;;;;;;23.37;17.83;;;;;;;2.36;100.00;96402.84;4962859;28;20480;-75
2022/11/14 07:30:07;;;;;;;24.67;18.37;;;;;;;2.33;100.00;96384.34;4974312;28;20429;-75
2022/11/14 07:32:57;;;;;;;28.00;20.10;;;;;;;2.51;100.00;96388.13;4976942;28;20417;-76
2022/11/14 07:35:42;;;;;;;27.80;18.00;;;;;;;2.59;100.00;96383.13;4974500;28;20596;-75
2022/11/14 07:38:32;;;;;;;26.63;18.70;;;;;;;2.61;100.00;96391.44;4975233;28;20532;-75
2022/11/14 07:41:18;;;;;;;26.07;19.20;;;;;;;2.71;100.00;96393.22;4977155;28;20420;-75
2022/11/14 07:44:03;;;;;;;22.10;17.80;;;;;;;2.51;100.00;96357.59;4975465;28;20916;-75
2022/11/14 07:46:49;;;;;;;26.20;18.93;;;;;;;2.76;100.00;96393.16;4974999;28;20471;-75
2022/11/14 07:49:34;;;;;;;26.40;19.53;;;;;;;2.79;100.00;96382.16;4975640;28;20432;-75
2022/11/14 07:52:19;;;;;;;31.97;23.83;;;;;;;2.85;100.00;96368.03;4975319;28;20931;-75
2022/11/14 07:55:05;;;;;;;41.93;23.60;;;;;;;2.84;100.00;96360.47;4976233;28;20519;-74
2022/11/14 07:57:54;;;;;;;33.70;22.63;;;;;;;2.97;100.00;96367.66;4982480;28;21169;-74
2022/11/14 08:00:39;;;;;;;25.80;19.00;;;;;;;3.10;100.00;96374.06;4998114;28;20520;-74
2022/11/14 08:03:24;;;;;;;27.73;18.60;;;;;;;3.00;100.00;96367.09;4995342;28;20415;-75
2022/11/14 08:06:12;;;;;;;25.53;17.97;;;;;;;3.16;100.00;96373.72;4974186;28;20444;-75
2022/11/14 08:08:57;;;;;;;20.67;16.53;;;;;;;3.09;100.00;96349.00;4976464;28;20424;-75
2022/11/14 08:11:49;;;;;;;41.97;23.53;;;;;;;3.43;100.00;96367.94;4993054;28;20510;-75
2022/11/14 08:14:34;;;;;;;40.20;23.57;;;;;;;3.56;100.00;96382.94;4993501;28;20939;-75
2022/11/14 08:17:20;;;;;;;33.93;21.97;;;;;;;3.61;100.00;96357.81;4994032;28;20443;-75
2022/11/14 08:20:07;;;;;;;22.03;16.50;;;;;;;3.95;100.00;96381.94;4994026;28;20431;-76
2022/11/14 08:22:53;;;;;;;29.20;18.00;;;;;;;3.93;100.00;96385.91;4984144;28;20785;-74
2022/11/14 08:25:40;;;;;;;27.63;16.90;;;;;;;4.07;100.00;96384.91;4962023;28;20895;-75
2022/11/14 08:28:25;;;;;;;24.80;18.63;;;;;;;3.98;100.00;96381.38;4974303;28;20475;-74
2022/11/14 08:31:12;;;;;;;22.57;17.43;;;;;;;4.06;100.00;96385.19;4973687;28;20431;-75
2022/11/14 08:33:57;;;;;;;24.73;17.23;;;;;;;4.33;100.00;96408.13;4973331;28;20416;-75
2022/11/14 08:36:43;;;;;;;20.60;15.97;;;;;;;4.29;100.00;96407.13;4972355;28;20595;-75
2022/11/14 08:39:28;;;;;;;19.23;16.03;;;;;;;4.32;100.00;96393.47;4973654;28;20476;-75
2022/11/14 08:42:13;;;;;;;23.37;17.93;;;;;;;4.53;100.00;96393.94;4972548;28;20440;-75
2022/11/14 08:44:58;;;;;;;28.10;17.90;;;;;;;4.68;100.00;96419.91;4973605;28;20476;-75
2022/11/14 08:47:51;;;;;;;20.50;15.27;;;;;;;4.58;100.00;96404.34;4972516;28;20448;-75
2022/11/14 08:50:36;;;;;;;22.07;18.40;;;;;;;4.59;100.00;96411.13;4973216;28;20432;-75
2022/11/14 08:53:22;;;;;;;20.10;15.40;;;;;;;4.72;100.00;96405.94;4986492;28;20480;-75
2022/11/14 08:56:09;;;;;;;23.20;17.90;;;;;;;4.78;100.00;96395.38;4973242;28;20523;-75
2022/11/14 08:58:54;;;;;;;21.70;17.20;;;;;;;4.89;100.00;96400.16;4973295;28;20463;-75
2022/11/14 09:01:40;;;;;;;20.77;16.50;;;;;;;4.91;100.00;96403.28;4973334;28;20440;-75
2022/11/14 09:04:25;;;;;;;19.93;16.63;;;;;;;4.85;100.00;96380.09;4974681;28;21256;-75
2022/11/14 09:07:10;;;;;;;19.03;15.60;;;;;;;4.88;100.00;96377.66;4972237;28;20451;-75
2022/11/14 09:09:56;;;;;;;22.50;16.67;;;;;;;5.11;100.00;96394.31;4972899;28;20424;-75
2022/11/14 09:12:41;;;;;;;21.47;15.70;;;;;;;5.03;100.00;96366.16;4971664;28;20501;-75
2022/11/14 09:15:27;;;;;;;15.00;12.43;;;;;;;5.29;100.00;96397.91;4985957;28;20460;-75
2022/11/14 09:18:12;;;;;;;20.50;15.60;;;;;;;5.25;100.00;96381.22;4971823;28;21109;-75
2022/11/14 09:21:06;;;;;;;17.43;13.47;;;;;;;5.31;100.00;96382.66;4992647;28;20447;-75
2022/11/14 09:23:51;;;;;;;20.80;15.10;;;;;;;5.30;100.00;96373.25;4991492;28;20443;-75
2022/11/14 09:26:44;;;;;;;18.83;13.93;;;;;;;5.49;100.00;96388.91;4992512;28;20515;-75
2022/11/14 09:29:30;;;;;;;17.83;13.10;;;;;;;5.38;100.00;96358.69;4992156;28;20506;-75
2022/11/14 09:32:15;;;;;;;16.20;14.50;;;;;;;5.75;100.00;96410.19;4983870;28;20416;-75
2022/11/14 09:35:00;;;;;;;17.10;13.50;;;;;;;5.77;100.00;96382.56;4972843;28;20456;-75
2022/11/14 09:37:45;;;;;;;19.33;16.00;;;;;;;6.22;100.00;96403.69;4972468;28;20523;-75
2022/11/14 09:40:48;;;;;;;23.73;17.20;;;;;;;6.07;100.00;96393.53;4972392;28;20429;-75
2022/11/14 09:44:02;;;;;;;19.13;14.30;;;;;;;6.27;100.00;96429.06;4973378;28;20448;-75
2022/11/14 09:47:09;;;;;;;17.17;14.10;;;;;;;6.14;100.00;96410.44;4972573;28;20432;-75
2022/11/14 09:50:04;;;;;;;17.60;14.50;;;;;;;6.23;100.00;96406.03;4972463;28;20420;-75
2022/11/14 09:52:57;;;;;;;16.33;12.77;;;;;;;6.58;100.00;96421.31;4972230;28;20424;-76
2022/11/14 09:55:43;;;;;;;14.03;12.43;;;;;;;6.62;100.00;96402.00;4972315;28;20555;-75
2022/11/14 09:58:28;;;;;;;13.47;11.17;;;;;;;6.64;100.00;96414.84;4972772;28;20662;-75
2022/11/14 10:01:45;;;;;;;18.97;11.97;;;;;;;6.86;100.00;96414.06;4972480;28;20797;-75
2022/11/14 10:04:36;;;;;;;12.17;10.93;;;;;;;6.94;100.00;96414.13;4984795;28;20529;-75
2022/11/14 10:07:43;;;;;;;14.23;12.13;;;;;;;6.93;100.00;96409.94;4969168;28;20830;-75
2022/11/14 10:10:39;;;;;;;14.53;11.07;;;;;;;6.92;100.00;96404.97;4971067;28;20583;-75
2022/11/14 10:13:51;;;;;;;17.87;11.17;;;;;;;6.95;100.00;96402.56;4972178;28;20787;-75
2022/11/14 10:16:58;;;;;;;13.50;11.97;;;;;;;6.99;100.00;96407.97;4977878;28;20538;-75
2022/11/14 10:19:47;;;;;;;13.10;11.47;;;;;;;7.14;100.00;96406.81;4972301;28;20436;-76
2022/11/14 10:22:55;;;;;;;13.60;11.83;;;;;;;7.16;100.00;96413.31;4971872;28;20917;-76
2022/11/14 10:26:24;;;;;;;14.60;11.93;;;;;;;7.21;100.00;96402.69;4959536;28;20916;-76
2022/11/14 10:29:31;;;;;;;13.53;11.77;;;;;;;7.51;100.00;96419.53;4983933;28;20424;-75
2022/11/14 10:32:42;;;;;;;11.13;9.93;;;;;;;7.33;100.00;96381.84;4991881;28;20419;-75
2022/11/14 10:35:34;;;;;;;11.87;10.17;;;;;;;7.64;100.00;96423.13;4991042;28;20936;-76
2022/11/14 10:38:34;;;;;;;16.17;11.80;;;;;;;7.53;100.00;96385.78;4992030;28;20455;-76
2022/11/14 10:41:21;;;;;;;12.73;11.30;;;;;;;7.55;100.00;96386.25;4995065;28;20423;-75
2022/11/14 10:44:39;;;;;;;15.77;11.37;;;;;;;7.67;100.00;96394.34;4995165;28;20502;-76
2022/11/14 10:47:28;;;;;;;11.57;9.93;;;;;;;7.84;100.00;96403.38;5007876;28;20829;-76
2022/11/14 10:50:18;;;;;;;12.67;10.37;;;;;;;7.93;100.00;96391.00;4995434;28;20423;-76
2022/11/14 10:53:13;;;;;;;13.93;11.70;;;;;;;8.02;100.00;96398.94;4994309;28;20420;-76
2022/11/14 10:55:58;;;;;;;12.40;9.90;;;;;;;7.90;100.00;96381.88;4995253;28;20482;-76
2022/11/14 10:58:49;;;;;;;12.90;10.37;;;;;;;8.33;100.00;96398.81;4995161;28;20443;-76
2022/11/14 11:01:42;;;;;;;11.07;9.87;;;;;;;8.22;100.00;96391.19;4994298;28;20986;-76
2022/11/14 11:04:32;;;;;;;13.20;10.67;;;;;;;8.05;100.00;96366.72;4996641;28;20416;-76
2022/11/14 11:13:34;;;;;;;11.17;9.97;;;;;;;8.08;100.00;96353.69;4976102;28;20801;-76
2022/11/14 11:16:22;;;;;;;12.37;9.20;;;;;;;8.66;100.00;96397.25;4993968;28;20545;-76
2022/11/14 11:19:26;;;;;;;11.93;10.83;;;;;;;9.00;100.00;96395.69;4993920;28;20416;-76
2022/11/14 11:22:25;;;;;;;14.90;9.37;;;;;;;8.79;100.00;96401.59;4995136;28;20443;-76
2022/11/14 11:25:32;;;;;;;11.63;10.17;;;;;;;8.61;100.00;96401.94;4994222;28;20897;-76
2022/11/14 11:28:20;;;;;;;11.37;10.23;;;;;;;8.56;100.00;96384.44;4993711;28;21015;-76
2022/11/14 11:31:07;;;;;;;10.57;9.53;;;;;;;8.81;100.00;96367.00;4984457;28;20435;-76
2022/11/14 11:33:53;;;;;;;10.93;9.83;;;;;;;8.78;100.00;96386.09;4976534;28;20428;-76
2022/11/14 11:36:52;;;;;;;10.80;9.70;;;;;;;8.63;100.00;96379.44;4975005;28;20543;-76
2022/11/14 11:39:44;;;;;;;9.80;8.80;;;;;;;8.79;100.00;96404.22;4990331;28;20424;-76
2022/11/14 11:42:39;;;;;;;12.73;11.20;;;;;;;8.87;100.00;96400.03;4982096;28;20412;-76
2022/11/14 11:45:48;;;;;;;10.83;9.07;;;;;;;8.99;100.00;96394.13;4977765;28;20436;-76
2022/11/14 11:48:37;;;;;;;12.20;9.53;;;;;;;8.96;100.00;96387.63;4975526;28;20447;-76
2022/11/14 11:51:25;;;;;;;11.37;10.23;;;;;;;9.00;100.00;96369.31;4975087;28;20970;-76
2022/11/14 11:54:21;;;;;;;10.73;9.47;;;;;;;9.19;100.00;96380.25;4975017;28;20436;-76
2022/11/14 11:57:13;;;;;;;9.57;8.67;;;;;;;9.15;100.00;96393.31;4975029;28;20563;-76
2022/11/14 12:00:13;;;;;;;10.70;9.30;;;;;;;9.33;100.00;96383.47;4988265;28;21041;-76
2022/11/14 12:02:59;;;;;;;11.83;9.63;;;;;;;9.28;100.00;96385.50;4976714;28;20424;-76
2022/11/14 12:05:44;;;;;;;10.00;8.67;;;;;;;9.28;100.00;96388.16;4979683;28;20427;-76
2022/11/14 12:08:44;;;;;;;9.50;8.57;;;;;;;9.28;100.00;96370.47;5001589;28;20448;-76
2022/11/14 12:11:33;;;;;;;10.57;9.47;;;;;;;9.37;100.00;96378.34;4974707;28;20447;-77
2022/11/14 12:14:57;;;;;;;10.53;9.53;;;;;;;9.32;100.00;96384.56;4981462;28;20419;-76
2022/11/14 12:17:52;;;;;;;10.83;9.73;;;;;;;9.13;100.00;96361.19;4993932;28;21081;-77
2022/11/14 12:21:12;;;;;;;11.00;10.00;;;;;;;9.33;100.00;96372.13;4994689;28;20419;-76
2022/11/14 12:24:32;;;;;;;11.93;10.37;;;;;;;9.54;100.00;96369.56;4950704;28;20518;-76
2022/11/14 12:27:39;;;;;;;11.60;10.37;;;;;;;9.83;100.00;96382.00;4993901;28;20435;-76
2022/11/14 12:30:26;;;;;;;10.00;9.00;;;;;;;9.97;100.00;96362.19;4992450;28;20814;-76
2022/11/14 12:33:16;;;;;;;9.07;8.17;;;;;;;9.99;100.00;96373.19;4993215;28;20475;-76
2022/11/14 12:36:05;;;;;;;10.03;9.03;;;;;;;9.95;100.00;96377.59;4992191;28;20947;-76
2022/11/14 12:38:52;;;;;;;10.30;9.30;;;;;;;10.21;100.00;96384.56;4993621;28;20443;-76
2022/11/14 12:41:39;;;;;;;10.47;9.20;;;;;;;10.49;100.00;96361.81;4993428;28;20426;-77
2022/11/14 12:44:27;;;;;;;9.27;8.23;;;;;;;10.94;100.00;96406.06;4993293;28;20526;-77
2022/11/14 12:47:27;;;;;;;10.10;9.07;;;;;;;11.03;100.00;96406.75;4994055;28;20463;-76
2022/11/14 12:50:40;;;;;;;8.70;7.80;;;;;;;11.05;100.00;96395.84;4983743;28;20424;-77
2022/11/14 12:53:34;;;;;;;10.73;8.70;;;;;;;11.51;100.00;96398.13;4973988;28;20429;-76
2022/11/14 12:56:29;;;;;;;9.87;8.87;;;;;;;11.78;100.00;96404.66;4973999;28;20556;-76
2022/11/14 12:59:27;;;;;;;8.90;8.00;;;;;;;11.48;100.00;96348.47;4973656;28;20776;-76
2022/11/14 13:02:22;;;;;;;9.43;8.53;;;;;;;11.89;100.00;96364.50;4973514;28;21022;-77
2022/11/14 13:05:48;;;;;;;8.83;8.03;;;;;;;12.92;100.00;96405.28;4974177;28;20471;-77